createdAt,value
2019-01-17T00:01:23.443Z,7.97
2019-01-17T00:04:11.538Z,7.50
2019-01-17T00:06:47.289Z,8.13
2019-01-17T00:09:20.639Z,7.20
2019-01-17T00:12:11.028Z,7.50
2019-01-17T00:14:47.430Z,7.60
2019-01-17T00:17:23.525Z,7.03
2019-01-17T00:20:12.261Z,7.60
2019-01-17T00:22:42.599Z,6.63
2019-01-17T00:25:32.093Z,7.20
2019-01-17T00:28:19.267Z,8.70
2019-01-17T00:31:07.959Z,10.30
2019-01-17T00:33:40.064Z,8.57
2019-01-17T00:36:10.390Z,6.33
2019-01-17T00:38:40.656Z,7.73
2019-01-17T00:41:16.860Z,7.77
2019-01-17T00:43:47.081Z,8.43
2019-01-17T00:46:18.199Z,7.87
2019-01-17T00:48:48.420Z,7.87
2019-01-17T00:51:37.137Z,8.60
2019-01-17T00:54:09.983Z,8.60
2019-01-17T00:56:56.484Z,9.33
2019-01-17T00:59:38.951Z,10.33
2019-01-17T01:02:27.292Z,9.40
2019-01-17T01:04:58.930Z,7.77
2019-01-17T01:07:38.541Z,7.90
2019-01-17T01:10:17.569Z,8.70
2019-01-17T01:12:49.309Z,8.70
2019-01-17T01:15:37.098Z,9.77
2019-01-17T01:18:11.758Z,10.10
2019-01-17T01:20:42.182Z,9.03
2019-01-17T01:23:30.616Z,8.43
2019-01-17T01:26:06.878Z,7.30
2019-01-17T01:28:37.261Z,7.50
2019-01-17T01:31:16.579Z,7.43
2019-01-17T01:34:00.418Z,6.47
2019-01-17T01:36:30.716Z,5.47
2019-01-17T01:39:01.055Z,5.87
2019-01-17T01:41:32.496Z,6.37
2019-01-17T01:44:22.381Z,6.37
2019-01-17T01:46:52.731Z,8.10
2019-01-17T01:49:35.394Z,7.20
2019-01-17T01:52:05.761Z,6.97
2019-01-17T01:54:34.357Z,7.50
2019-01-17T01:57:04.099Z,6.57
2019-01-17T01:59:32.688Z,5.43
2019-01-17T02:02:01.309Z,5.80
2019-01-17T02:04:30.047Z,7.17
2019-01-17T02:06:58.786Z,6.27
2019-01-17T02:09:27.406Z,6.87
2019-01-17T02:11:56.081Z,6.13
2019-01-17T02:14:25.014Z,6.03
2019-01-17T02:16:53.846Z,5.80
2019-01-17T02:19:22.449Z,6.17
2019-01-17T02:21:51.116Z,6.23
2019-01-17T02:24:19.593Z,6.33
2019-01-17T02:26:48.256Z,6.60
2019-01-17T02:29:16.929Z,7.00
2019-01-17T02:31:45.928Z,5.50
2019-01-17T02:34:14.478Z,5.13
2019-01-17T02:36:43.875Z,5.33
2019-01-17T02:39:12.492Z,7.43
2019-01-17T02:41:41.096Z,7.23
2019-01-17T02:44:09.718Z,5.70
2019-01-17T02:46:38.279Z,5.97
2019-01-17T02:49:06.905Z,5.40
2019-01-17T02:51:35.445Z,5.80
2019-01-17T02:54:04.295Z,5.37
2019-01-17T02:56:32.905Z,5.90
2019-01-17T02:59:01.515Z,4.63
2019-01-17T03:01:30.523Z,5.13
2019-01-17T03:03:59.126Z,5.27
2019-01-17T03:06:30.892Z,5.20
2019-01-17T03:08:59.560Z,5.53
2019-01-17T03:11:28.218Z,4.70
2019-01-17T03:13:56.878Z,4.10
2019-01-17T03:16:25.472Z,4.40
2019-01-17T03:18:54.134Z,5.47
2019-01-17T03:21:22.791Z,5.70
2019-01-17T03:23:51.456Z,6.07
2019-01-17T03:26:24.389Z,6.20
2019-01-17T03:28:52.983Z,6.93
2019-01-17T03:31:22.884Z,4.87
2019-01-17T03:33:52.009Z,5.20
2019-01-17T03:36:20.617Z,4.87
2019-01-17T03:38:49.278Z,4.23
2019-01-17T03:41:17.961Z,6.57
2019-01-17T03:43:46.614Z,5.60
2019-01-17T03:46:15.341Z,5.43
2019-01-17T03:48:44.199Z,4.97
2019-01-17T03:51:12.843Z,5.60
2019-01-17T03:53:42.943Z,5.70
2019-01-17T03:56:11.977Z,5.50
2019-01-17T03:58:40.595Z,5.07
2019-01-17T04:01:09.227Z,4.80
2019-01-17T04:03:37.783Z,5.27
2019-01-17T04:06:06.394Z,5.50
2019-01-17T04:08:35.059Z,4.97
2019-01-17T04:11:03.678Z,4.80
2019-01-17T04:13:32.224Z,4.37
2019-01-17T04:16:00.900Z,4.27
2019-01-17T04:18:35.249Z,4.10
2019-01-17T04:21:03.912Z,4.60
2019-01-17T04:23:32.584Z,3.97
2019-01-17T04:26:01.131Z,3.90
2019-01-17T04:28:29.786Z,3.33
2019-01-17T04:30:58.463Z,4.37
2019-01-17T04:33:33.164Z,3.67
2019-01-17T04:36:03.559Z,3.73
2019-01-17T04:38:32.120Z,3.90
2019-01-17T04:41:00.753Z,3.43
2019-01-17T04:43:29.410Z,3.70
2019-01-17T04:46:04.100Z,3.73
2019-01-17T04:48:32.834Z,6.63
2019-01-17T04:51:02.017Z,5.77
2019-01-17T04:53:30.589Z,5.10
2019-01-17T04:56:01.927Z,4.90
2019-01-17T04:58:30.571Z,4.73
2019-01-17T05:00:59.125Z,4.90
2019-01-17T05:03:27.787Z,4.60
2019-01-17T05:05:56.403Z,5.60
2019-01-17T05:08:25.029Z,5.00
2019-01-17T05:10:53.646Z,4.80
2019-01-17T05:13:22.198Z,5.93
2019-01-17T05:15:50.855Z,4.97
2019-01-17T05:18:19.472Z,5.37
2019-01-17T05:20:48.286Z,8.73
2019-01-17T05:23:23.282Z,8.80
2019-01-17T05:25:51.879Z,7.70
2019-01-17T05:28:26.128Z,7.03
2019-01-17T05:30:54.864Z,6.00
2019-01-17T05:33:23.571Z,4.10
2019-01-17T05:35:55.724Z,4.10
2019-01-17T05:38:24.466Z,4.67
2019-01-17T05:40:54.117Z,6.40
2019-01-17T05:43:22.755Z,7.90
2019-01-17T05:45:51.362Z,5.10
2019-01-17T05:48:20.314Z,4.50
2019-01-17T05:50:48.952Z,5.17
2019-01-17T05:53:19.151Z,5.33
2019-01-17T05:55:47.760Z,5.20
2019-01-17T05:58:16.412Z,5.40
2019-01-17T06:00:45.015Z,5.33
2019-01-17T06:03:19.887Z,5.33
2019-01-17T06:05:52.765Z,5.47
2019-01-17T06:08:24.371Z,8.03
2019-01-17T06:10:53.501Z,7.33
2019-01-17T06:13:22.194Z,6.50
2019-01-17T06:15:51.708Z,6.70
2019-01-17T06:18:20.276Z,7.13
2019-01-17T06:20:52.025Z,8.90
2019-01-17T06:23:20.669Z,7.50
2019-01-17T06:25:52.132Z,7.50
2019-01-17T06:28:20.804Z,7.20
2019-01-17T06:30:52.124Z,7.70
2019-01-17T06:33:20.802Z,7.67
2019-01-17T06:35:49.430Z,8.27
2019-01-17T06:38:22.286Z,8.77
2019-01-17T06:40:50.914Z,9.33
2019-01-17T06:43:19.563Z,10.77
2019-01-17T06:45:48.936Z,11.20
2019-01-17T06:48:17.601Z,11.03
2019-01-17T06:50:46.228Z,8.70
2019-01-17T06:53:15.328Z,11.27
2019-01-17T06:55:44.008Z,10.60
2019-01-17T06:58:12.553Z,9.93
2019-01-17T07:00:43.995Z,10.00
2019-01-17T07:03:12.620Z,10.40
2019-01-17T07:05:41.286Z,11.00
2019-01-17T07:08:09.970Z,11.73
2019-01-17T07:10:42.717Z,11.90
2019-01-17T07:13:11.376Z,12.27
2019-01-17T07:15:40.007Z,16.87
2019-01-17T07:18:08.680Z,16.63
2019-01-17T07:20:37.303Z,18.37
2019-01-17T07:23:09.772Z,14.77
2019-01-17T07:25:41.348Z,11.60
2019-01-17T07:28:13.156Z,12.03
2019-01-17T07:30:41.777Z,7.37
2019-01-17T07:33:10.406Z,8.30
2019-01-17T07:35:39.065Z,7.73
2019-01-17T07:38:07.816Z,8.80
2019-01-17T07:40:39.414Z,6.97
2019-01-17T07:43:08.041Z,7.60
2019-01-17T07:45:36.734Z,8.23
2019-01-17T07:48:08.068Z,7.23
2019-01-17T07:50:36.682Z,8.63
2019-01-17T07:53:08.360Z,9.20
2019-01-17T07:55:37.041Z,9.97
2019-01-17T07:58:10.616Z,11.40
2019-01-17T08:00:39.594Z,11.03
2019-01-17T08:03:08.638Z,11.23
2019-01-17T08:05:38.907Z,9.87
2019-01-17T08:08:07.591Z,7.87
2019-01-17T08:10:36.179Z,9.40
2019-01-17T08:13:07.023Z,9.80
2019-01-17T08:15:35.729Z,9.87
2019-01-17T08:18:37.720Z,9.73
2019-01-17T08:21:31.689Z,8.00
2019-01-17T08:24:36.523Z,6.50
2019-01-17T08:27:24.261Z,5.00
2019-01-17T08:30:28.993Z,3.90
2019-01-17T08:33:17.135Z,3.53
2019-01-17T08:36:21.748Z,2.93
2019-01-17T08:39:09.814Z,2.87
2019-01-17T08:42:17.864Z,3.40
2019-01-17T08:45:05.759Z,2.30
2019-01-17T08:48:10.835Z,3.10
2019-01-17T08:51:01.859Z,2.90
2019-01-17T08:54:09.612Z,3.00
2019-01-17T08:57:14.158Z,3.63
2019-01-17T09:00:18.873Z,3.70
2019-01-17T09:03:23.634Z,5.40
2019-01-17T09:06:11.516Z,6.20
2019-01-17T09:09:16.329Z,5.43
2019-01-17T09:12:07.227Z,5.40
2019-01-17T09:15:11.812Z,4.23
2019-01-17T09:18:00.164Z,4.43
2019-01-17T09:21:05.161Z,3.63
2019-01-17T09:23:53.459Z,4.27
2019-01-17T09:26:58.390Z,3.53
2019-01-17T09:30:02.872Z,3.63
2019-01-17T09:32:50.763Z,4.17
2019-01-17T09:35:55.581Z,4.60
2019-01-17T09:38:43.747Z,6.27
2019-01-17T09:41:48.570Z,6.17
2019-01-17T09:44:36.294Z,4.83
2019-01-17T09:47:41.148Z,6.10
2019-01-17T09:50:29.106Z,5.70
2019-01-17T09:53:34.054Z,5.90
2019-01-17T09:56:25.229Z,5.77
2019-01-17T09:59:29.711Z,5.90
2019-01-17T10:02:18.502Z,6.42
2019-01-17T10:05:23.103Z,7.63
2019-01-17T10:08:11.589Z,8.03
2019-01-17T10:11:16.547Z,7.70
2019-01-17T10:14:04.275Z,7.20
2019-01-17T10:17:09.561Z,6.47
2019-01-17T10:19:57.806Z,6.72
2019-01-17T10:23:02.417Z,7.53
2019-01-17T10:26:07.601Z,35.45
2019-01-17T10:28:56.514Z,5.43
2019-01-17T10:32:01.086Z,5.83
2019-01-17T10:35:05.441Z,7.42
2019-01-17T10:38:10.111Z,6.28
2019-01-17T10:41:15.098Z,5.53
2019-01-17T10:44:20.007Z,5.92
2019-01-17T10:47:10.426Z,6.92
2019-01-17T10:50:15.627Z,5.70
2019-01-17T10:53:03.455Z,6.22
2019-01-17T10:56:08.200Z,5.75
2019-01-17T10:59:12.835Z,4.70
2019-01-17T11:02:01.128Z,5.08
2019-01-17T11:05:09.295Z,4.20
2019-01-17T11:08:13.743Z,4.05
2019-01-17T11:11:18.543Z,4.45
2019-01-17T11:14:06.604Z,4.12
2019-01-17T11:17:11.388Z,5.28
2019-01-17T11:20:16.489Z,4.40
2019-01-17T11:23:04.364Z,4.72
2019-01-17T11:26:08.939Z,3.95
2019-01-17T11:29:13.784Z,4.90
2019-01-17T11:32:01.702Z,4.15
2019-01-17T11:35:06.506Z,3.58
2019-01-17T11:38:11.575Z,3.95
2019-01-17T11:41:16.388Z,3.92
2019-01-17T11:44:21.162Z,4.37
2019-01-17T11:47:09.172Z,3.92
2019-01-17T11:50:13.814Z,4.35
2019-01-17T11:53:18.434Z,4.03
2019-01-17T11:56:23.247Z,4.42
2019-01-17T11:59:28.821Z,4.17
2019-01-17T12:02:39.004Z,4.33
2019-01-17T12:05:25.873Z,3.87
2019-01-17T12:08:30.584Z,4.03
2019-01-17T12:11:18.731Z,4.33
2019-01-17T12:14:24.176Z,4.72
2019-01-17T12:17:13.556Z,4.85
2019-01-17T12:20:18.143Z,3.80
2019-01-17T12:23:06.265Z,3.87
2019-01-17T12:26:11.223Z,3.77
2019-01-17T12:28:59.220Z,4.40
2019-01-17T12:32:03.892Z,6.05
2019-01-17T12:34:52.107Z,6.90
2019-01-17T12:37:56.828Z,7.17
2019-01-17T12:40:47.514Z,6.20
2019-01-17T12:43:52.337Z,6.78
2019-01-17T12:46:43.308Z,6.17
2019-01-17T12:49:47.766Z,6.45
2019-01-17T12:52:52.294Z,6.25
2019-01-17T12:55:40.293Z,7.05
2019-01-17T12:58:44.897Z,9.05
2019-01-17T13:01:33.249Z,6.72
2019-01-17T13:04:37.862Z,8.23
2019-01-17T13:07:25.591Z,8.28
2019-01-17T13:10:30.221Z,13.00
2019-01-17T13:13:18.206Z,7.20
2019-01-17T13:16:22.780Z,7.60
2019-01-17T13:19:10.793Z,6.47
2019-01-17T13:22:15.582Z,6.85
2019-01-17T13:25:04.150Z,5.58
2019-01-17T13:28:09.380Z,9.13
2019-01-17T13:30:57.390Z,5.15
2019-01-17T13:34:01.872Z,6.00
2019-01-17T13:36:49.928Z,6.75
2019-01-17T13:39:54.859Z,5.28
2019-01-17T13:42:43.241Z,6.25
2019-01-17T13:45:47.987Z,7.08
2019-01-17T13:48:16.612Z,4.62
2019-01-17T13:50:48.092Z,4.85
2019-01-17T13:53:16.719Z,5.87
2019-01-17T13:55:45.313Z,6.47
2019-01-17T13:58:16.936Z,6.45
2019-01-17T14:00:45.509Z,6.85
2019-01-17T14:03:14.122Z,6.30
2019-01-17T14:05:42.915Z,5.55
2019-01-17T14:08:11.577Z,5.17
2019-01-17T14:10:43.227Z,4.67
2019-01-17T14:13:11.970Z,5.83
2019-01-17T14:15:40.651Z,4.35
2019-01-17T14:18:14.659Z,5.80
2019-01-17T14:20:43.335Z,5.35
2019-01-17T14:23:12.066Z,5.15
2019-01-17T14:25:40.776Z,6.40
2019-01-17T14:28:12.428Z,6.58
2019-01-17T14:30:41.562Z,6.62
2019-01-17T14:33:10.235Z,7.25
2019-01-17T14:35:38.871Z,8.50
2019-01-17T14:38:13.509Z,8.90
2019-01-17T14:40:42.139Z,10.48
2019-01-17T14:43:10.747Z,9.63
2019-01-17T14:45:39.378Z,12.40
2019-01-17T14:48:08.060Z,12.13
2019-01-17T14:50:36.704Z,13.00
2019-01-17T14:53:05.939Z,12.30
2019-01-17T14:55:34.574Z,13.63
2019-01-17T14:58:03.257Z,11.80
2019-01-17T15:00:33.426Z,14.20
2019-01-17T15:03:02.552Z,14.00
2019-01-17T15:05:31.285Z,26.40
2019-01-17T15:07:59.874Z,27.80
2019-01-17T15:10:31.644Z,34.73
2019-01-17T15:13:00.275Z,38.77
2019-01-17T15:15:29.667Z,30.43
2019-01-17T15:17:58.564Z,67.47
2019-01-17T15:20:27.204Z,71.50
2019-01-17T15:22:55.875Z,29.07
2019-01-17T15:25:24.602Z,126.17
2019-01-17T15:27:53.910Z,87.97
2019-01-17T15:30:24.939Z,48.60
2019-01-17T15:32:53.768Z,29.43
2019-01-17T15:35:25.395Z,31.97
2019-01-17T15:37:54.024Z,38.20
2019-01-17T15:40:30.273Z,39.47
2019-01-17T15:42:58.830Z,53.93
2019-01-17T15:45:27.526Z,56.33
2019-01-17T15:47:59.226Z,36.67
2019-01-17T15:50:27.893Z,36.20
2019-01-17T15:52:56.523Z,35.87
2019-01-17T15:55:28.373Z,38.03
2019-01-17T15:57:56.929Z,31.10
2019-01-17T16:00:27.881Z,29.60
2019-01-17T16:02:56.876Z,38.60
2019-01-17T16:05:25.606Z,53.67
2019-01-17T16:07:56.938Z,58.00
2019-01-17T16:10:28.290Z,50.10
2019-01-17T16:12:56.874Z,41.60
2019-01-17T16:15:29.099Z,35.37
2019-01-17T16:17:57.862Z,30.03
2019-01-17T16:20:26.488Z,31.93
2019-01-17T16:22:55.250Z,32.43
2019-01-17T16:25:23.939Z,30.23
2019-01-17T16:27:55.334Z,34.43
2019-01-17T16:30:33.815Z,41.13
2019-01-17T16:33:08.245Z,43.70
2019-01-17T16:35:39.934Z,41.17
2019-01-17T16:38:08.568Z,38.37
2019-01-17T16:40:37.314Z,34.53
2019-01-17T16:43:05.984Z,32.00
2019-01-17T16:45:35.544Z,30.87
2019-01-17T16:48:07.570Z,35.10
2019-01-17T16:50:38.974Z,32.43
2019-01-17T16:53:07.594Z,26.77
2019-01-17T16:55:36.269Z,31.50
2019-01-17T16:58:07.971Z,31.20
2019-01-17T17:00:38.995Z,28.07
2019-01-17T17:03:10.748Z,25.60
2019-01-17T17:05:42.432Z,21.13
2019-01-17T17:08:12.285Z,20.37
2019-01-17T17:10:41.130Z,21.27
2019-01-17T17:13:09.771Z,19.37
2019-01-17T17:15:39.092Z,21.63
2019-01-17T17:18:08.648Z,30.80
2019-01-17T17:20:37.272Z,43.83
2019-01-17T17:23:05.937Z,49.57
2019-01-17T17:25:34.629Z,56.53
2019-01-17T17:28:07.578Z,54.80
2019-01-17T17:30:39.003Z,56.13
2019-01-17T17:33:07.665Z,61.80
2019-01-17T17:35:36.365Z,45.13
2019-01-17T17:38:05.429Z,33.80
2019-01-17T17:40:34.041Z,35.97
2019-01-17T17:43:09.938Z,40.70
2019-01-17T17:45:38.503Z,44.60
2019-01-17T17:48:07.182Z,44.93
2019-01-17T17:50:35.660Z,48.77
2019-01-17T17:53:04.323Z,42.90
2019-01-17T17:55:36.878Z,39.63
2019-01-17T17:58:05.602Z,35.80
2019-01-17T18:00:35.918Z,44.63
2019-01-17T18:03:04.536Z,45.80
2019-01-17T18:05:33.278Z,43.23
2019-01-17T18:08:01.940Z,48.97
2019-01-17T18:10:30.570Z,154.37
2019-01-17T18:12:59.279Z,147.03
2019-01-17T18:15:30.732Z,128.30
2019-01-17T18:17:59.458Z,111.47
2019-01-17T18:20:28.137Z,45.30
2019-01-17T18:22:57.168Z,38.00
2019-01-17T18:25:25.844Z,36.87
2019-01-17T18:27:54.486Z,37.60
2019-01-17T18:30:32.441Z,40.37
2019-01-17T18:33:01.074Z,40.10
2019-01-17T18:35:29.799Z,37.57
2019-01-17T18:38:02.556Z,41.00
2019-01-17T18:40:37.632Z,42.83
2019-01-17T18:43:11.692Z,44.53
2019-01-17T18:45:43.139Z,43.43
2019-01-17T18:48:12.455Z,44.47
2019-01-17T18:50:41.246Z,45.93
2019-01-17T18:53:09.951Z,51.83
2019-01-17T18:55:42.115Z,60.43
2019-01-17T18:58:15.497Z,60.80
2019-01-17T19:00:42.148Z,61.70
2019-01-17T19:03:11.842Z,64.60
2019-01-17T19:05:40.602Z,67.13
2019-01-17T19:08:10.403Z,73.80
2019-01-17T19:10:39.169Z,79.13
2019-01-17T19:13:09.466Z,76.73
2019-01-17T19:15:38.170Z,78.57
2019-01-17T19:18:11.302Z,73.23
2019-01-17T19:20:40.729Z,73.03
2019-01-17T19:23:14.027Z,74.17
2019-01-17T19:25:51.717Z,72.90
2019-01-17T19:28:28.450Z,76.03
2019-01-17T19:30:57.188Z,71.50
2019-01-17T19:33:27.904Z,70.53
2019-01-17T19:35:56.575Z,68.63
2019-01-17T19:38:25.924Z,68.97
2019-01-17T19:40:54.631Z,65.13
2019-01-17T19:43:25.929Z,73.80
2019-01-17T19:45:58.692Z,71.50
2019-01-17T19:48:29.163Z,70.60
2019-01-17T19:50:57.921Z,70.83
2019-01-17T19:53:28.130Z,63.67
2019-01-17T19:55:59.639Z,59.70
2019-01-17T19:58:30.889Z,52.20
2019-01-17T20:00:59.691Z,53.80
2019-01-17T20:03:28.389Z,55.40
2019-01-17T20:06:01.306Z,52.47
2019-01-17T20:08:30.053Z,49.53
2019-01-17T20:10:58.778Z,46.47
2019-01-17T20:13:31.450Z,44.67
2019-01-17T20:16:00.252Z,46.83
2019-01-17T20:18:29.019Z,46.27
2019-01-17T20:20:57.784Z,46.47
2019-01-17T20:23:26.493Z,52.67
2019-01-17T20:25:55.228Z,52.03
2019-01-17T20:28:23.948Z,52.40
2019-01-17T20:30:52.808Z,52.33
2019-01-17T20:33:24.235Z,51.33
2019-01-17T20:35:56.322Z,51.17
2019-01-17T20:38:28.097Z,51.07
2019-01-17T20:41:00.802Z,50.40
2019-01-17T20:43:35.644Z,48.27
2019-01-17T20:46:04.451Z,49.77
2019-01-17T20:48:34.636Z,48.20
2019-01-17T20:51:03.378Z,44.93
2019-01-17T20:53:32.088Z,41.53
2019-01-17T20:56:02.173Z,40.23
2019-01-17T20:58:32.977Z,39.07
2019-01-17T21:01:18.176Z,40.20
2019-01-17T21:03:48.210Z,37.70
2019-01-17T21:06:16.837Z,37.13
2019-01-17T21:08:51.794Z,36.00
2019-01-17T21:11:27.790Z,37.77
2019-01-17T21:13:56.471Z,38.47
2019-01-17T21:16:25.104Z,34.47
2019-01-17T21:18:53.810Z,31.07
2019-01-17T21:21:22.414Z,30.27
2019-01-17T21:23:50.963Z,29.97
2019-01-17T21:26:19.524Z,29.33
2019-01-17T21:28:49.201Z,30.80
2019-01-17T21:31:18.640Z,28.63
2019-01-17T21:33:50.019Z,31.33
2019-01-17T21:36:18.641Z,31.60
2019-01-17T21:38:47.316Z,30.40
2019-01-17T21:41:15.878Z,32.83
2019-01-17T21:43:44.476Z,31.53
2019-01-17T21:46:13.107Z,31.97
2019-01-17T21:48:41.694Z,32.47
2019-01-17T21:51:10.376Z,32.93
2019-01-17T21:53:45.753Z,34.73
2019-01-17T21:56:14.529Z,36.43
2019-01-17T21:58:43.151Z,35.90
2019-01-17T22:01:11.802Z,33.47
2019-01-17T22:03:53.887Z,34.00
2019-01-17T22:06:22.617Z,32.37
2019-01-17T22:08:51.230Z,32.43
2019-01-17T22:11:21.346Z,32.27
2019-01-17T22:13:50.016Z,30.77
2019-01-17T22:16:18.664Z,33.40
2019-01-17T22:18:47.326Z,33.07
2019-01-17T22:21:15.953Z,31.80
2019-01-17T22:23:44.652Z,33.17
2019-01-17T22:26:13.276Z,34.87
2019-01-17T22:28:41.926Z,33.90
2019-01-17T22:31:10.567Z,32.53
2019-01-17T22:33:39.124Z,35.73
2019-01-17T22:36:07.791Z,31.63
2019-01-17T22:38:36.465Z,29.43
2019-01-17T22:41:05.319Z,29.70
2019-01-17T22:43:33.953Z,29.90
2019-01-17T22:46:02.503Z,29.30
2019-01-17T22:48:42.908Z,26.83
2019-01-17T22:51:17.471Z,25.37
2019-01-17T22:53:46.986Z,24.97
2019-01-17T22:56:15.760Z,25.10
2019-01-17T22:58:44.404Z,26.57
2019-01-17T23:01:22.136Z,25.90
2019-01-17T23:03:50.832Z,28.27
2019-01-17T23:06:19.486Z,28.43
2019-01-17T23:08:54.264Z,29.63
2019-01-17T23:11:29.374Z,30.07
2019-01-17T23:13:53.314Z,29.03
2019-01-17T23:16:25.442Z,28.70
2019-01-17T23:18:54.130Z,29.07
2019-01-17T23:21:22.752Z,28.97
2019-01-17T23:23:51.419Z,28.53
2019-01-17T23:26:23.954Z,30.23
2019-01-17T23:28:52.650Z,29.10
2019-01-17T23:31:21.297Z,31.20
2019-01-17T23:33:56.045Z,32.13
2019-01-17T23:36:24.779Z,31.00
2019-01-17T23:39:01.808Z,32.37
2019-01-17T23:41:30.447Z,35.83
2019-01-17T23:43:59.239Z,35.53
2019-01-17T23:46:35.299Z,38.70
2019-01-17T23:49:18.100Z,36.80
2019-01-17T23:51:46.757Z,34.80
2019-01-17T23:54:22.976Z,34.57
2019-01-17T23:56:51.637Z,35.30
2019-01-17T23:59:22.715Z,32.33
